createdAt,value
2022-11-21T00:01:58.217Z,84.10
2022-11-21T00:04:40.448Z,81.63
2022-11-21T00:07:29.184Z,82.95
2022-11-21T00:10:19.074Z,81.65
2022-11-21T00:13:08.166Z,82.13
2022-11-21T00:15:58.200Z,78.47
2022-11-21T00:18:50.598Z,81.88
2022-11-21T00:21:32.052Z,78.53
2022-11-21T00:24:14.590Z,81.57
2022-11-21T00:27:03.185Z,81.43
2022-11-21T00:29:51.475Z,81.07
2022-11-21T00:32:33.126Z,78.90
2022-11-21T00:35:15.412Z,80.70
2022-11-21T00:38:04.125Z,82.70
2022-11-21T00:40:46.837Z,80.10
2022-11-21T00:43:36.172Z,82.35
2022-11-21T00:46:18.371Z,81.80
2022-11-21T00:49:07.210Z,82.00
2022-11-21T00:51:56.607Z,81.88
2022-11-21T00:54:39.193Z,81.70
2022-11-21T00:57:28.047Z,81.57
2022-11-21T01:00:10.498Z,78.70
2022-11-21T01:02:59.123Z,83.13
2022-11-21T01:05:41.395Z,80.32
2022-11-21T01:08:30.059Z,80.57
2022-11-21T01:11:14.590Z,78.57
2022-11-21T01:14:03.121Z,78.82
2022-11-21T01:16:45.741Z,82.75
2022-11-21T01:19:35.174Z,83.05
2022-11-21T01:22:17.464Z,82.85
2022-11-21T01:25:06.016Z,80.97
2022-11-21T01:27:55.075Z,84.38
2022-11-21T01:30:43.433Z,80.47
2022-11-21T01:33:26.182Z,83.30
2022-11-21T01:36:29.793Z,82.22
2022-11-21T01:42:02.394Z,78.85
2022-11-21T01:45:40.113Z,85.93
2022-11-21T01:48:35.151Z,83.22
2022-11-21T01:52:01.134Z,83.18
2022-11-21T01:54:48.740Z,84.97
2022-11-21T01:57:56.040Z,83.75
2022-11-21T02:00:49.208Z,85.95
2022-11-21T02:03:42.049Z,84.72
2022-11-21T02:06:33.106Z,84.50
2022-11-21T02:09:15.410Z,83.75
2022-11-21T02:12:10.109Z,84.55
2022-11-21T02:14:52.415Z,81.43
2022-11-21T02:17:42.187Z,85.95
2022-11-21T02:20:27.436Z,85.00
2022-11-21T02:23:23.108Z,90.45
2022-11-21T02:26:05.412Z,87.22
2022-11-21T02:28:54.104Z,89.60
2022-11-21T02:31:36.411Z,87.40
2022-11-21T02:34:25.258Z,88.82
2022-11-21T02:37:16.070Z,92.28
2022-11-21T02:40:16.038Z,94.30
2022-11-21T02:43:08.424Z,93.28
2022-11-21T02:45:53.137Z,95.90
2022-11-21T02:48:43.102Z,93.30
2022-11-21T02:51:32.173Z,93.00
2022-11-21T02:54:14.328Z,90.40
2022-11-21T02:57:04.132Z,92.18
2022-11-21T02:59:46.261Z,87.10
2022-11-21T03:02:35.050Z,91.13
2022-11-21T03:05:26.554Z,90.80
2022-11-21T03:08:09.035Z,94.45
2022-11-21T03:11:04.208Z,94.13
2022-11-21T03:13:46.280Z,101.82
2022-11-21T03:16:35.209Z,102.00
2022-11-21T03:19:17.337Z,104.57
2022-11-21T03:22:06.074Z,104.35
2022-11-21T03:24:55.017Z,97.28
2022-11-21T03:27:44.036Z,115.50
2022-11-21T03:30:41.023Z,91.80
2022-11-21T03:33:29.998Z,88.78
2022-11-21T03:36:12.463Z,86.70
2022-11-21T03:39:03.459Z,86.60
2022-11-21T03:41:45.378Z,88.45
2022-11-21T03:44:34.139Z,86.82
2022-11-21T03:47:16.431Z,84.80
2022-11-21T03:50:05.037Z,82.68
2022-11-21T03:52:54.407Z,82.93
2022-11-21T03:55:42.471Z,76.57
2022-11-21T03:58:24.127Z,75.40
2022-11-21T04:01:16.629Z,75.18
2022-11-21T04:03:59.141Z,75.85
2022-11-21T04:06:47.411Z,70.10
2022-11-21T04:09:29.156Z,68.90
2022-11-21T04:12:11.479Z,68.70
2022-11-21T04:15:00.173Z,67.25
2022-11-21T04:17:49.384Z,69.15
2022-11-21T04:20:31.093Z,68.72
2022-11-21T04:23:20.409Z,69.38
2022-11-21T04:26:03.100Z,68.13
2022-11-21T04:28:59.017Z,66.35
2022-11-21T04:31:48.141Z,65.38
2022-11-21T04:34:37.141Z,62.65
2022-11-21T04:37:19.537Z,59.50
2022-11-21T04:40:08.080Z,58.30
2022-11-21T04:42:57.437Z,58.70
2022-11-21T04:45:40.134Z,59.70
2022-11-21T04:48:29.152Z,61.90
2022-11-21T04:51:11.632Z,56.80
2022-11-21T04:54:00.138Z,58.13
2022-11-21T04:56:42.392Z,53.90
2022-11-21T04:59:31.077Z,52.92
2022-11-21T05:02:13.430Z,52.20
2022-11-21T05:05:02.086Z,45.47
2022-11-21T05:07:44.507Z,47.05
2022-11-21T05:10:33.112Z,45.97
2022-11-21T05:13:23.466Z,43.42
2022-11-21T05:16:13.070Z,42.10
2022-11-21T05:18:55.368Z,40.35
2022-11-21T05:21:44.116Z,34.60
2022-11-21T05:24:49.051Z,31.17
2022-11-21T05:27:38.427Z,30.23
2022-11-21T05:30:27.156Z,28.75
2022-11-21T05:33:09.376Z,29.73
2022-11-21T05:35:58.164Z,29.30
2022-11-21T05:38:40.559Z,28.58
2022-11-21T05:41:29.226Z,29.17
2022-11-21T05:44:11.556Z,28.75
2022-11-21T05:47:00.472Z,27.85
2022-11-21T05:49:42.422Z,28.08
2022-11-21T05:52:31.124Z,23.50
2022-11-21T05:55:13.452Z,24.42
2022-11-21T05:58:02.188Z,24.90
2022-11-21T06:00:44.504Z,25.95
2022-11-21T06:03:35.170Z,25.92
2022-11-21T06:06:25.011Z,23.23
2022-11-21T06:09:14.073Z,26.25
2022-11-21T06:11:56.558Z,27.38
2022-11-21T06:14:45.196Z,29.90
2022-11-21T06:17:27.414Z,29.80
2022-11-21T06:20:17.208Z,29.80
2022-11-21T06:22:59.532Z,35.03
2022-11-21T06:25:48.143Z,33.83
2022-11-21T06:28:47.949Z,34.22
2022-11-21T06:31:38.112Z,32.42
2022-11-21T06:34:20.436Z,35.72
2022-11-21T06:37:09.434Z,37.00
2022-11-21T06:39:51.443Z,31.00
2022-11-21T06:42:41.129Z,28.13
2022-11-21T06:45:23.510Z,22.80
2022-11-21T06:48:12.474Z,22.65
2022-11-21T06:50:54.436Z,24.52
2022-11-21T06:53:43.160Z,29.08
2022-11-21T06:56:25.364Z,31.10
2022-11-21T06:59:14.214Z,31.45
2022-11-21T07:01:56.355Z,31.67
2022-11-21T07:04:45.143Z,33.28
2022-11-21T07:07:27.448Z,30.27
2022-11-21T07:10:17.149Z,29.40
2022-11-21T07:13:17.893Z,30.98
2022-11-21T07:16:16.141Z,30.08
2022-11-21T07:18:58.372Z,32.42
2022-11-21T07:21:47.082Z,35.10
2022-11-21T07:24:29.438Z,33.55
2022-11-21T07:27:18.038Z,29.48
2022-11-21T07:30:13.152Z,28.83
2022-11-21T07:33:10.430Z,29.85
2022-11-21T07:35:53.181Z,31.70
2022-11-21T07:38:42.574Z,32.63
2022-11-21T07:41:25.190Z,28.95
2022-11-21T07:44:07.406Z,30.23
2022-11-21T07:46:56.127Z,31.88
2022-11-21T07:49:44.435Z,34.85
2022-11-21T07:52:27.122Z,35.28
2022-11-21T07:55:16.477Z,34.17
2022-11-21T07:58:07.117Z,35.10
2022-11-21T08:00:55.437Z,34.97
2022-11-21T08:03:37.165Z,35.38
2022-11-21T08:06:25.366Z,31.75
2022-11-21T08:09:07.063Z,31.42
2022-11-21T08:12:03.082Z,34.00
2022-11-21T08:14:51.401Z,33.17
2022-11-21T08:17:37.147Z,34.10
2022-11-21T08:20:25.350Z,33.47
2022-11-21T08:23:07.229Z,30.90
2022-11-21T08:25:49.318Z,32.65
2022-11-21T08:28:38.165Z,31.20
2022-11-21T08:31:26.462Z,31.10
2022-11-21T08:34:11.651Z,32.75
2022-11-21T08:37:03.088Z,32.05
2022-11-21T08:39:45.347Z,22.42
2022-11-21T10:22:41.427Z,9.43
2022-11-21T10:25:32.041Z,8.38
2022-11-21T10:28:37.377Z,7.22
2022-11-21T10:31:21.274Z,7.85
2022-11-21T10:34:13.392Z,8.05
2022-11-21T10:37:39.845Z,6.88
2022-11-21T10:40:36.296Z,7.63
2022-11-21T10:43:42.923Z,6.85
2022-11-21T10:46:31.263Z,7.07
2022-11-21T10:49:22.606Z,6.95
2022-11-21T10:52:20.308Z,6.93
2022-11-21T10:55:12.381Z,6.93
2022-11-21T10:58:07.300Z,6.97
2022-11-21T11:01:05.705Z,6.28
2022-11-21T11:04:06.987Z,6.68
2022-11-21T11:06:56.373Z,6.70
2022-11-21T11:09:48.338Z,7.28
2022-11-21T11:12:51.866Z,8.35
2022-11-21T11:15:42.391Z,7.32
2022-11-21T11:18:31.656Z,8.30
2022-11-21T11:21:49.550Z,7.93
2022-11-21T11:24:34.634Z,8.05
2022-11-21T11:27:36.238Z,7.93
2022-11-21T11:30:25.637Z,8.18
2022-11-21T11:33:42.431Z,9.50
2022-11-21T11:36:45.533Z,9.48
2022-11-21T11:40:05.461Z,8.50
2022-11-21T11:43:21.147Z,9.52
2022-11-21T11:46:38.404Z,8.32
2022-11-21T11:50:12.661Z,9.43
2022-11-21T11:53:22.446Z,8.63
2022-11-21T11:56:11.686Z,10.02
2022-11-21T11:59:16.257Z,9.70
2022-11-21T12:02:01.855Z,9.93
2022-11-21T12:05:13.251Z,10.95
2022-11-21T12:12:16.243Z,10.85
2022-11-21T12:15:48.309Z,10.75
2022-11-21T12:18:41.397Z,11.98
2022-11-21T12:21:30.712Z,12.43
2022-11-21T12:24:13.272Z,11.93
2022-11-21T12:27:48.196Z,11.57
2022-11-21T12:30:49.234Z,11.00
2022-11-21T12:33:44.425Z,11.68
2022-11-21T12:36:37.607Z,12.65
2022-11-21T12:39:48.149Z,13.38
2022-11-21T12:42:52.240Z,11.80
2022-11-21T12:45:47.322Z,12.25
2022-11-21T12:49:27.654Z,12.40
2022-11-21T12:52:53.690Z,13.50
2022-11-21T12:55:44.302Z,12.77
2022-11-21T12:58:43.613Z,14.20
2022-11-21T13:01:39.344Z,14.20
2022-11-21T13:04:50.568Z,13.45
2022-11-21T13:07:42.339Z,13.65
2022-11-21T13:10:31.327Z,14.32
2022-11-21T13:13:49.363Z,14.20
2022-11-21T13:16:45.313Z,14.90
2022-11-21T13:19:53.354Z,17.05
2022-11-21T13:22:44.655Z,15.55
2022-11-21T13:25:47.455Z,16.25
2022-11-21T13:28:42.595Z,16.42
2022-11-21T13:31:39.238Z,17.23
2022-11-21T13:34:50.372Z,17.23
2022-11-21T13:38:14.886Z,16.33
2022-11-21T13:41:15.391Z,18.58
2022-11-21T13:44:39.433Z,17.85
2022-11-21T13:47:34.393Z,19.45
2022-11-21T13:50:28.556Z,19.42
2022-11-21T13:53:32.418Z,18.33
2022-11-21T13:56:47.281Z,19.95
2022-11-21T13:59:48.295Z,20.45
2022-11-21T14:02:48.693Z,21.27
2022-11-21T14:05:58.357Z,20.98
2022-11-21T14:08:48.260Z,21.60
2022-11-21T14:11:52.300Z,21.20
2022-11-21T14:14:49.708Z,18.73
2022-11-21T14:17:49.321Z,21.48
2022-11-21T14:21:09.278Z,20.50
2022-11-21T14:23:58.689Z,23.92
2022-11-21T14:26:54.249Z,24.35
2022-11-21T14:29:49.264Z,25.70
2022-11-21T14:32:39.598Z,24.33
2022-11-21T14:35:32.328Z,26.38
2022-11-21T14:38:14.743Z,25.58
2022-11-21T14:41:35.262Z,27.63
2022-11-21T14:44:18.713Z,28.23
2022-11-21T14:47:26.772Z,28.38
2022-11-21T14:50:16.252Z,31.20
2022-11-21T14:53:07.600Z,29.90
2022-11-21T14:55:50.215Z,28.33
2022-11-21T14:58:38.647Z,30.33
2022-11-21T15:01:47.404Z,31.42
2022-11-21T15:04:39.757Z,30.65
2022-11-21T15:07:32.279Z,35.25
2022-11-21T15:10:30.224Z,33.47
2022-11-21T15:13:39.738Z,32.72
2022-11-21T15:16:31.073Z,34.20
2022-11-21T15:19:26.719Z,32.60
2022-11-21T15:22:30.073Z,32.05
2022-11-21T15:25:37.199Z,33.20
2022-11-21T15:28:19.771Z,31.05
2022-11-21T15:31:33.413Z,32.97
2022-11-21T15:37:40.298Z,37.53
2022-11-21T15:40:28.591Z,36.08
2022-11-21T15:43:11.252Z,37.13
2022-11-21T15:46:10.322Z,38.47
2022-11-21T15:49:06.236Z,38.35
2022-11-21T15:52:09.845Z,37.33
2022-11-21T15:54:59.331Z,38.60
2022-11-21T15:57:13.219Z,35.97
2022-11-21T15:57:41.468Z,40.55
2022-11-21T16:00:31.332Z,39.58
2022-11-21T16:03:20.358Z,40.47
2022-11-21T16:06:02.774Z,41.58
2022-11-21T16:08:51.304Z,38.72
2022-11-21T16:11:48.225Z,39.22
2022-11-21T16:14:36.568Z,39.55
2022-11-21T16:17:19.320Z,38.35
2022-11-21T16:20:08.240Z,40.30
2022-11-21T16:23:03.266Z,39.50
2022-11-21T16:26:03.623Z,41.38
2022-11-21T16:28:47.058Z,40.35
2022-11-21T16:31:38.380Z,41.55
2022-11-21T16:34:21.164Z,43.42
2022-11-21T16:37:10.344Z,43.85
2022-11-21T16:39:55.406Z,42.60
2022-11-21T16:42:44.378Z,47.47
2022-11-21T16:45:26.642Z,47.03
2022-11-21T16:48:15.329Z,47.17
2022-11-21T16:50:59.003Z,46.25
2022-11-21T16:53:51.342Z,45.25
2022-11-21T16:56:34.687Z,45.95
2022-11-21T16:59:23.250Z,48.70
2022-11-21T17:02:12.513Z,47.70
2022-11-21T17:05:01.801Z,49.03
2022-11-21T17:07:53.325Z,49.80
2022-11-21T17:10:42.249Z,47.92
2022-11-21T17:13:31.264Z,48.90
2022-11-21T17:16:21.553Z,49.28
2022-11-21T17:19:08.634Z,50.20
2022-11-21T17:21:58.329Z,52.90
2022-11-21T17:24:41.479Z,54.05
2022-11-21T17:27:32.188Z,56.22
2022-11-21T17:30:17.142Z,55.38
2022-11-21T17:33:06.186Z,55.55
2022-11-21T17:35:55.418Z,56.03
2022-11-21T17:38:37.569Z,54.45
2022-11-21T17:41:27.452Z,55.28
2022-11-21T17:44:20.320Z,55.13
2022-11-21T17:47:03.851Z,59.33
2022-11-21T17:49:52.249Z,55.97
2022-11-21T17:52:42.233Z,55.78
2022-11-21T17:55:30.562Z,54.28
2022-11-21T17:58:13.239Z,56.00
2022-11-21T18:01:03.638Z,57.30
2022-11-21T18:03:47.118Z,58.22
2022-11-21T18:06:41.626Z,56.22
2022-11-21T18:09:24.436Z,56.47
2022-11-21T18:12:06.773Z,58.28
2022-11-21T18:14:55.187Z,56.72
2022-11-21T18:17:45.220Z,58.95
2022-11-21T18:20:40.385Z,57.35
2022-11-21T18:23:22.526Z,54.42
2022-11-21T18:26:16.355Z,59.60
2022-11-21T18:29:34.534Z,57.42
2022-11-21T18:32:09.433Z,55.53
2022-11-21T18:34:58.737Z,56.60
2022-11-21T18:37:42.387Z,58.08
2022-11-21T18:40:30.662Z,57.70
2022-11-21T18:43:12.186Z,55.42
2022-11-21T18:45:54.456Z,57.90
2022-11-21T18:49:01.567Z,55.55
2022-11-21T18:51:52.122Z,55.67
2022-11-21T18:54:34.296Z,57.00
2022-11-21T18:57:16.673Z,58.28
2022-11-21T19:00:05.443Z,57.83
2022-11-21T19:02:48.065Z,58.85
2022-11-21T19:05:37.313Z,59.33
2022-11-21T19:08:26.582Z,59.83
2022-11-21T19:11:13.316Z,62.58
2022-11-21T19:14:03.276Z,59.30
2022-11-21T19:16:45.710Z,58.67
2022-11-21T19:19:36.343Z,60.10
2022-11-21T19:22:24.564Z,60.47
2022-11-21T19:25:07.316Z,58.85
2022-11-21T19:27:55.684Z,62.17
2022-11-21T19:30:38.254Z,61.25
2022-11-21T19:33:27.319Z,59.90
2022-11-21T19:36:12.517Z,64.82
2022-11-21T19:39:01.313Z,62.17
2022-11-21T19:41:43.625Z,59.40
2022-11-21T19:44:32.245Z,59.90
2022-11-21T19:47:21.267Z,62.22
2022-11-21T19:50:10.359Z,61.33
2022-11-21T19:52:52.548Z,59.28
2022-11-21T19:55:41.309Z,61.13
2022-11-21T19:58:24.510Z,61.30
2022-11-21T20:01:22.416Z,62.90
2022-11-21T20:04:06.535Z,62.47
2022-11-21T20:06:55.214Z,62.60
2022-11-21T20:09:37.921Z,63.35
2022-11-21T20:12:27.221Z,63.53
2022-11-21T20:15:09.538Z,62.92
2022-11-21T20:17:59.401Z,65.95
2022-11-21T20:20:54.155Z,65.13
2022-11-21T20:23:43.291Z,63.78
2022-11-21T20:26:27.536Z,63.60
2022-11-21T20:29:18.295Z,67.00
2022-11-21T20:32:02.264Z,66.80
2022-11-21T20:34:51.293Z,70.25
2022-11-21T20:37:34.699Z,66.97
2022-11-21T20:40:23.363Z,66.53
2022-11-21T20:43:05.559Z,66.15
2022-11-21T20:46:14.142Z,66.32
2022-11-21T20:48:57.643Z,66.53
2022-11-21T20:54:49.137Z,61.63
2022-11-21T20:57:38.145Z,66.73
2022-11-21T21:00:20.794Z,64.15
2022-11-21T21:03:09.235Z,64.55
2022-11-21T21:06:01.478Z,68.95
2022-11-21T21:08:55.547Z,76.85
2022-11-21T21:11:53.544Z,77.68
2022-11-21T21:14:35.570Z,76.05
2022-11-21T21:17:24.298Z,80.40
2022-11-21T21:20:13.506Z,79.88
2022-11-21T21:23:03.154Z,81.38
2022-11-21T21:25:46.250Z,71.25
2022-11-21T21:28:35.265Z,65.97
2022-11-21T21:31:22.823Z,64.65
2022-11-21T21:34:11.542Z,64.53
2022-11-21T21:36:53.537Z,62.08
2022-11-21T21:39:42.326Z,62.88
2022-11-21T21:42:24.470Z,63.10
2022-11-21T21:45:13.117Z,60.88
2022-11-21T21:47:55.517Z,63.20
2022-11-21T21:50:44.208Z,60.88
2022-11-21T21:53:26.537Z,64.70
2022-11-21T21:56:15.328Z,64.57
2022-11-21T21:58:58.890Z,63.45
2022-11-21T22:01:50.323Z,63.55
2022-11-21T22:04:34.872Z,66.38
2022-11-21T22:07:23.225Z,65.53
2022-11-21T22:10:05.578Z,64.68
2022-11-21T22:12:56.280Z,65.38
2022-11-21T22:15:38.495Z,65.32
2022-11-21T22:18:27.361Z,71.53
2022-11-21T22:21:29.083Z,74.22
2022-11-21T22:24:25.822Z,76.95
2022-11-21T22:27:08.537Z,82.32
2022-11-21T22:29:57.179Z,87.43
2022-11-21T22:32:39.613Z,99.68
2022-11-21T22:35:28.229Z,117.90
2022-11-21T22:38:10.552Z,118.57
2022-11-21T22:40:59.218Z,111.55
2022-11-21T22:43:48.147Z,108.18
2022-11-21T22:46:38.542Z,109.95
2022-11-21T22:49:20.311Z,114.63
2022-11-21T22:52:08.532Z,150.20
2022-11-21T22:54:50.130Z,167.93
2022-11-21T22:57:42.505Z,116.90
2022-11-21T23:00:25.318Z,96.00
2022-11-21T23:03:13.520Z,83.05
2022-11-21T23:05:55.313Z,76.80
2022-11-21T23:08:44.537Z,76.18
2022-11-21T23:11:40.417Z,79.53
2022-11-21T23:14:22.546Z,76.03
2022-11-21T23:17:11.348Z,76.47
2022-11-21T23:19:59.523Z,76.45
2022-11-21T23:22:48.151Z,77.22
2022-11-21T23:25:30.525Z,80.90
2022-11-21T23:28:19.247Z,76.95
2022-11-21T23:31:01.522Z,82.05
2022-11-21T23:33:50.199Z,80.05
2022-11-21T23:36:40.135Z,79.72
2022-11-21T23:39:28.867Z,79.32
2022-11-21T23:42:12.711Z,82.20
2022-11-21T23:44:54.462Z,82.33
2022-11-21T23:47:43.252Z,81.88
2022-11-21T23:50:32.129Z,83.00
2022-11-21T23:53:21.246Z,80.72
2022-11-21T23:56:03.152Z,80.38
2022-11-21T23:58:52.315Z,83.43
